Time;durP1;ratioP1;P1;durP2;ratioP2;P2;SDS_P1;SDS_P2;PMS_P1;PMS_P2;Temp;Humidity;BMP_temperature;BMP_pressure;BME280_temperature;BME280_humidity;BME280_pressure;Samples;Min_cycle;Max_cycle;Signal;HPM_P1;HPM_P2
2022/06/12 00:00:30;;;;;;;3.27;2.97;;;;;;;17.09;100.00;100768.16;4972263;28;20667;-73
2022/06/12 00:02:57;;;;;;;3.23;2.93;;;;;;;17.06;100.00;100766.47;4979325;28;20946;-77
2022/06/12 00:05:25;;;;;;;3.13;2.90;;;;;;;17.06;100.00;100768.25;4982000;28;20303;-75
2022/06/12 00:07:51;;;;;;;2.90;2.70;;;;;;;17.06;100.00;100768.25;4993561;28;20267;-76
2022/06/12 00:10:17;;;;;;;3.13;2.87;;;;;;;17.03;100.00;100765.72;4978279;28;20336;-76
2022/06/12 00:12:44;;;;;;;3.57;3.10;;;;;;;17.00;100.00;100771.88;4977113;28;20679;-75
2022/06/12 00:15:13;;;;;;;3.03;2.83;;;;;;;16.99;100.00;100767.56;4989559;28;20287;-75
2022/06/12 00:17:41;;;;;;;3.07;2.77;;;;;;;16.98;100.00;100773.69;4970007;28;20666;-77
2022/06/12 00:20:10;;;;;;;3.20;3.00;;;;;;;16.96;100.00;100766.75;4984405;28;20284;-76
2022/06/12 00:22:36;;;;;;;2.80;2.60;;;;;;;16.94;100.00;100765.94;4971003;28;20309;-76
2022/06/12 00:25:01;;;;;;;3.93;3.10;;;;;;;16.91;100.00;100772.97;4970768;28;20185;-75
2022/06/12 00:27:27;;;;;;;3.77;3.47;;;;;;;16.87;100.00;100771.31;4976038;28;20191;-75
2022/06/12 00:29:52;;;;;;;3.90;3.60;;;;;;;16.83;100.00;100774.06;4976981;28;20561;-74
2022/06/12 00:32:18;;;;;;;3.70;3.50;;;;;;;16.79;100.00;100770.66;4980203;28;20227;-76
2022/06/12 00:34:48;;;;;;;4.53;3.40;;;;;;;16.75;100.00;100769.06;4978157;28;20298;-76
2022/06/12 00:37:17;;;;;;;3.33;3.13;;;;;;;16.73;100.00;100776.91;4978160;28;20969;-75
2022/06/12 00:39:46;;;;;;;3.70;3.40;;;;;;;16.70;100.00;100771.78;4976778;28;20196;-76
2022/06/12 00:42:30;;;;;;;3.90;3.60;;;;;;;16.66;100.00;100778.00;4989391;28;20232;-76
2022/06/12 00:44:59;;;;;;;3.90;3.60;;;;;;;16.65;100.00;100778.00;4976886;28;20189;-76
2022/06/12 00:47:26;;;;;;;3.87;3.67;;;;;;;16.64;100.00;100773.72;4971286;28;20204;-76
2022/06/12 00:50:03;;;;;;;4.00;3.70;;;;;;;16.63;100.00;100777.22;4976426;28;20266;-75
2022/06/12 00:52:41;;;;;;;3.97;3.67;;;;;;;16.57;100.00;100781.69;4977677;28;20219;-75
2022/06/12 00:55:12;;;;;;;4.70;4.27;;;;;;;16.53;100.00;100785.28;4978557;28;20219;-76
2022/06/12 00:57:40;;;;;;;4.73;4.23;;;;;;;16.50;100.00;100785.34;4969780;28;20196;-75
2022/06/12 01:00:10;;;;;;;5.13;4.17;;;;;;;16.43;100.00;100787.28;4970095;28;20247;-76
2022/06/12 01:02:36;;;;;;;3.97;3.77;;;;;;;16.40;100.00;100792.59;4968384;28;20889;-76
2022/06/12 01:07:53;;;;;;;3.87;3.57;;;;;;;16.32;100.00;100794.53;4966377;28;20207;-75
2022/06/12 01:10:20;;;;;;;3.90;3.60;;;;;;;16.28;100.00;100788.53;4969315;28;20258;-76
2022/06/12 01:12:57;;;;;;;4.80;4.40;;;;;;;16.24;100.00;100791.25;4969370;28;20350;-75
2022/06/12 01:15:30;;;;;;;4.73;4.33;;;;;;;16.20;100.00;100784.38;4969951;28;20195;-76
2022/06/12 01:17:58;;;;;;;4.37;3.97;;;;;;;16.18;100.00;100791.41;4968716;28;20193;-74
2022/06/12 01:20:31;;;;;;;4.57;4.17;;;;;;;16.13;100.00;100797.56;4981161;28;20192;-74
2022/06/12 01:23:16;;;;;;;4.60;4.20;;;;;;;16.13;100.00;100794.13;4969818;28;20188;-76
2022/06/12 01:26:03;;;;;;;5.27;4.47;;;;;;;16.13;100.00;100789.75;4973411;28;20213;-75
2022/06/12 01:28:47;;;;;;;4.27;3.93;;;;;;;16.11;100.00;100794.13;4972881;28;20191;-76
2022/06/12 01:31:31;;;;;;;4.20;3.80;;;;;;;16.13;100.00;100794.13;4971417;28;20218;-76
2022/06/12 01:34:11;;;;;;;4.33;3.93;;;;;;;16.14;100.00;100799.28;4978436;28;20238;-76
2022/06/12 01:36:36;;;;;;;4.00;3.70;;;;;;;16.17;100.00;100792.28;4979148;28;20177;-76
2022/06/12 01:39:20;;;;;;;3.93;3.63;;;;;;;16.16;100.00;100794.06;4977349;28;20204;-76
2022/06/12 01:42:33;;;;;;;5.00;3.50;;;;;;;16.10;100.00;100792.47;4972752;28;20236;-74
2022/06/12 01:45:01;;;;;;;3.50;3.20;;;;;;;16.04;100.00;100784.75;4931679;28;20225;-75
2022/06/12 01:47:36;;;;;;;4.17;3.63;;;;;;;15.99;100.00;100784.88;4915432;29;20623;-74
2022/06/12 01:50:24;;;;;;;3.30;3.10;;;;;;;15.97;100.00;100789.25;4967015;28;20205;-77
2022/06/12 01:53:24;;;;;;;3.80;3.50;;;;;;;15.95;100.00;100791.06;4990786;28;20228;-76
2022/06/12 01:56:00;;;;;;;3.63;3.33;;;;;;;15.95;100.00;100792.81;4978771;28;20311;-78
2022/06/12 01:59:13;;;;;;;4.33;3.37;;;;;;;15.95;100.00;100792.81;4973406;28;20194;-76
2022/06/12 02:02:10;;;;;;;3.90;3.50;;;;;;;15.93;100.00;100792.84;4954361;28;20215;-77
2022/06/12 02:04:44;;;;;;;4.10;3.70;;;;;;;15.91;100.00;100791.16;4970973;28;20684;-76
2022/06/12 02:07:17;;;;;;;3.80;3.50;;;;;;;15.90;100.00;100789.44;4977171;28;20202;-77
2022/06/12 02:10:19;;;;;;;3.70;3.40;;;;;;;15.87;100.00;100792.13;4968641;28;20192;-76
2022/06/12 02:13:11;;;;;;;3.87;3.57;;;;;;;15.86;100.00;100788.66;4986064;28;20322;-77
2022/06/12 02:15:45;;;;;;;4.40;4.10;;;;;;;15.84;100.00;100783.44;4989254;28;20585;-75
2022/06/12 02:18:34;;;;;;;4.30;3.90;;;;;;;15.84;100.00;100787.81;4971977;28;20286;-76
2022/06/12 02:21:14;;;;;;;4.63;4.27;;;;;;;15.88;100.00;100788.63;4971070;28;20281;-76
2022/06/12 02:23:55;;;;;;;4.30;3.90;;;;;;;15.87;100.00;100789.50;4970942;28;20196;-76
2022/06/12 02:26:26;;;;;;;3.80;3.40;;;;;;;15.83;100.00;100786.09;4975158;28;20188;-76
2022/06/12 02:28:57;;;;;;;4.37;3.97;;;;;;;15.81;100.00;100783.50;4973792;28;20205;-75
2022/06/12 02:31:37;;;;;;;4.00;3.70;;;;;;;15.82;100.00;100777.38;4973932;28;20220;-76
2022/06/12 02:34:09;;;;;;;3.87;3.47;;;;;;;15.81;100.00;100780.03;4972804;28;20656;-76
2022/06/12 02:36:47;;;;;;;5.30;4.13;;;;;;;15.79;100.00;100767.03;4975915;28;20597;-76
2022/06/12 02:39:30;;;;;;;4.57;4.17;;;;;;;15.77;100.00;100776.66;4975282;28;21629;-76
2022/06/12 02:42:01;;;;;;;4.27;3.87;;;;;;;15.74;100.00;100768.00;4979337;28;20216;-77
2022/06/12 02:44:29;;;;;;;4.43;4.03;;;;;;;15.72;100.00;100775.03;4975169;28;20676;-76
2022/06/12 02:47:03;;;;;;;4.10;3.80;;;;;;;15.67;100.00;100769.91;4975618;28;20197;-75
2022/06/12 02:49:28;;;;;;;3.87;3.50;;;;;;;15.62;100.00;100774.38;4971099;28;20207;-75
2022/06/12 02:52:05;;;;;;;4.20;3.90;;;;;;;15.56;100.00;100770.16;4973681;28;20217;-75
2022/06/12 02:54:39;;;;;;;4.10;3.80;;;;;;;15.50;100.00;100765.91;4974184;28;20586;-77
2022/06/12 02:57:19;;;;;;;4.00;3.70;;;;;;;15.46;100.00;100766.91;4978411;28;20208;-76
2022/06/12 03:00:06;;;;;;;4.10;3.80;;;;;;;15.43;100.00;100766.09;4970192;28;20501;-77
2022/06/12 03:02:52;;;;;;;4.40;4.00;;;;;;;15.41;100.00;100770.50;4990820;28;20279;-76
2022/06/12 03:05:24;;;;;;;3.93;3.63;;;;;;;15.36;100.00;100775.78;4979612;28;20267;-75
2022/06/12 03:08:00;;;;;;;4.67;4.27;;;;;;;15.32;100.00;100775.00;4981533;28;20211;-76
2022/06/12 03:10:31;;;;;;;4.70;4.30;;;;;;;15.30;100.00;100768.94;4995975;28;20704;-77
2022/06/12 03:12:57;;;;;;;4.70;4.30;;;;;;;15.24;100.00;100769.09;4977719;28;20313;-76
2022/06/12 03:15:54;;;;;;;4.17;3.87;;;;;;;15.21;100.00;100772.59;4982106;28;20702;-77
2022/06/12 03:18:26;;;;;;;4.60;4.20;;;;;;;15.20;100.00;100768.28;4975361;28;20856;-76
2022/06/12 03:21:02;;;;;;;4.33;4.03;;;;;;;15.20;100.00;100770.03;4994936;28;20207;-76
2022/06/12 03:23:53;;;;;;;5.70;4.10;;;;;;;15.16;100.00;100779.69;4992149;28;20322;-76
2022/06/12 03:26:34;;;;;;;4.70;4.40;;;;;;;15.13;100.00;100781.47;4975728;28;20687;-76
2022/06/12 03:29:11;;;;;;;4.20;3.87;;;;;;;15.14;100.00;100793.63;4973634;28;20204;-76
2022/06/12 03:32:05;;;;;;;4.13;3.83;;;;;;;15.18;100.00;100796.16;4975383;28;20214;-76
2022/06/12 03:34:44;;;;;;;3.97;3.67;;;;;;;15.19;100.00;100795.28;4977438;28;20205;-76
2022/06/12 03:37:29;;;;;;;5.20;3.90;;;;;;;15.16;100.00;100799.66;4978467;28;20190;-77
2022/06/12 03:40:08;;;;;;;4.90;4.40;;;;;;;15.14;100.00;100804.91;4976520;28;20300;-76
2022/06/12 03:42:43;;;;;;;4.07;3.77;;;;;;;15.16;100.00;100802.28;4979242;28;20206;-75
2022/06/12 03:45:47;;;;;;;3.93;3.63;;;;;;;15.21;100.00;100814.31;4975899;28;20707;-76
2022/06/12 03:48:22;;;;;;;3.67;3.43;;;;;;;15.31;100.00;100820.22;4964351;28;20955;-77
2022/06/12 03:51:00;;;;;;;3.90;3.60;;;;;;;15.39;100.00;100810.50;4976156;28;20211;-76
2022/06/12 03:53:37;;;;;;;4.43;3.43;;;;;;;15.55;100.00;100813.63;4972308;28;20249;-77
2022/06/12 03:59:20;;;;;;;3.80;3.50;;;;;;;17.19;100.00;100815.81;4976143;28;20204;-76
2022/06/12 04:01:47;;;;;;;3.80;3.50;;;;;;;17.81;100.00;100817.50;4976350;28;20251;-77
2022/06/12 04:04:16;;;;;;;3.50;3.20;;;;;;;18.02;100.00;100830.84;4988749;28;20979;-77
2022/06/12 04:06:43;;;;;;;4.17;3.77;;;;;;;17.90;100.00;100823.34;4970845;28;20212;-76
2022/06/12 04:09:19;;;;;;;3.70;2.97;;;;;;;17.70;100.00;100822.16;4972574;28;20571;-76
2022/06/12 04:11:52;;;;;;;3.83;3.53;;;;;;;17.54;100.00;100828.78;4979704;28;20261;-75
2022/06/12 04:14:19;;;;;;;3.50;3.30;;;;;;;17.43;100.00;100823.88;4972427;28;20192;-77
2022/06/12 04:16:53;;;;;;;3.00;2.80;;;;;;;17.47;100.00;100820.28;4978196;28;20901;-77
2022/06/12 04:19:23;;;;;;;3.50;3.30;;;;;;;17.63;100.00;100831.13;4978326;28;20284;-76
2022/06/12 04:22:11;;;;;;;3.30;3.00;;;;;;;18.26;100.00;100825.72;4978323;28;20213;-76
2022/06/12 04:24:47;;;;;;;3.07;2.87;;;;;;;18.35;100.00;100825.41;4979321;28;20719;-76
2022/06/12 04:27:22;;;;;;;3.40;3.17;;;;;;;18.27;100.00;100824.84;4977076;28;20259;-77
2022/06/12 04:30:19;;;;;;;3.17;2.97;;;;;;;18.15;100.00;100818.22;4977284;28;20188;-76
2022/06/12 04:32:45;;;;;;;3.43;3.13;;;;;;;18.06;100.00;100821.97;4977344;28;20232;-77
2022/06/12 04:35:11;;;;;;;3.23;3.03;;;;;;;18.07;100.00;100821.06;4973268;28;20185;-74
2022/06/12 04:37:37;;;;;;;3.13;2.93;;;;;;;18.16;100.00;100826.91;4972770;28;20208;-77
2022/06/12 04:40:05;;;;;;;3.10;2.90;;;;;;;18.76;100.00;100819.69;4978011;28;20193;-77
2022/06/12 04:42:32;;;;;;;2.97;2.77;;;;;;;20.20;99.32;100824.00;4976409;28;20242;-76
2022/06/12 04:45:00;;;;;;;2.87;2.60;;;;;;;21.75;93.56;100815.56;4976948;28;20217;-76
2022/06/12 04:47:28;;;;;;;2.60;2.40;;;;;;;23.17;89.43;100819.06;4970509;28;20196;-77
2022/06/12 04:49:54;;;;;;;2.17;2.07;;;;;;;24.33;85.89;100821.47;4971131;28;20499;-76
2022/06/12 04:52:22;;;;;;;2.23;2.10;;;;;;;25.38;82.88;100819.63;4969080;28;20303;-77
2022/06/12 04:54:48;;;;;;;2.40;2.20;;;;;;;26.23;80.53;100817.81;4978753;28;20204;-76
2022/06/12 04:57:16;;;;;;;2.23;2.10;;;;;;;26.97;78.65;100811.94;4978269;28;20185;-77
2022/06/12 04:59:43;;;;;;;2.33;2.10;;;;;;;27.69;76.55;100813.91;4978575;28;20219;-75
2022/06/12 05:02:08;;;;;;;2.00;1.80;;;;;;;28.35;75.49;100815.34;4974522;28;20205;-76
2022/06/12 05:04:35;;;;;;;2.67;2.03;;;;;;;28.96;73.51;100811.59;4974615;28;21182;-76
2022/06/12 05:07:01;;;;;;;2.33;2.03;;;;;;;29.50;72.46;100802.84;4976501;28;20224;-76
2022/06/12 05:09:30;;;;;;;2.17;2.03;;;;;;;30.05;71.32;100819.78;4974861;28;20189;-77
2022/06/12 05:11:56;;;;;;;2.40;2.20;;;;;;;30.47;70.34;100813.63;4974090;28;20224;-77
2022/06/12 05:14:21;;;;;;;1.90;1.70;;;;;;;30.85;69.29;100813.03;4975005;28;20193;-78
2022/06/12 05:17:05;;;;;;;2.77;1.97;;;;;;;31.27;67.22;100811.25;4975603;28;20197;-75
2022/06/12 05:19:35;;;;;;;2.47;2.27;;;;;;;31.52;66.40;100807.22;4986976;28;20238;-74
2022/06/12 05:22:01;;;;;;;2.17;1.97;;;;;;;31.80;66.00;100812.78;4973665;28;20943;-76
2022/06/12 05:24:27;;;;;;;2.27;2.07;;;;;;;32.12;65.04;100816.13;4971733;28;20193;-75
2022/06/12 05:26:53;;;;;;;2.10;1.90;;;;;;;32.43;64.15;100816.00;4965614;28;20203;-76
2022/06/12 05:29:24;;;;;;;2.00;1.90;;;;;;;32.66;63.49;100813.81;4969053;28;20211;-75
2022/06/12 05:31:49;;;;;;;1.80;1.70;;;;;;;32.92;63.05;100811.34;4975728;28;20232;-77
2022/06/12 05:34:15;;;;;;;2.25;2.10;;;;;;;33.10;62.02;100808.72;4975277;28;20692;-76
2022/06/12 05:36:42;;;;;;;2.00;1.85;;;;;;;33.35;61.39;100805.50;4974701;28;20196;-75
2022/06/12 05:39:08;;;;;;;2.38;2.05;;;;;;;33.59;60.95;100821.88;4975517;28;20191;-75
2022/06/12 05:41:33;;;;;;;2.80;2.10;;;;;;;33.62;60.14;100820.75;4976799;28;20204;-77
2022/06/12 05:43:58;;;;;;;2.28;2.17;;;;;;;33.87;59.76;100820.97;4975499;28;20204;-78
2022/06/12 05:46:24;;;;;;;3.53;2.35;;;;;;;33.83;58.12;100812.38;4989646;28;20309;-77
2022/06/12 05:48:49;;;;;;;2.60;2.40;;;;;;;33.68;57.85;100820.13;4989308;28;20699;-76
2022/06/12 05:51:17;;;;;;;2.70;2.47;;;;;;;33.68;58.09;100805.88;4973805;28;20249;-76
2022/06/12 05:53:43;;;;;;;2.78;2.45;;;;;;;33.58;57.66;100822.03;4972757;28;20205;-75
2022/06/12 05:56:13;;;;;;;3.15;2.20;;;;;;;33.44;57.11;100818.88;4986486;28;20193;-75
2022/06/12 05:58:40;;;;;;;1.95;1.85;;;;;;;33.74;57.78;100807.91;4971157;28;20204;-74
2022/06/12 06:01:08;;;;;;;2.42;2.22;;;;;;;34.05;57.05;100815.59;4969943;28;20547;-75
2022/06/12 06:03:34;;;;;;;2.42;2.17;;;;;;;34.33;56.84;100813.66;4980869;28;20235;-75
2022/06/12 06:06:00;;;;;;;2.53;2.33;;;;;;;34.32;56.23;100809.28;4970404;28;20193;-75
2022/06/12 06:08:25;;;;;;;2.60;2.40;;;;;;;34.25;56.31;100815.44;4989254;28;20199;-75
2022/06/12 06:10:51;;;;;;;2.45;2.30;;;;;;;34.47;56.34;100808.72;4975244;28;20299;-75
2022/06/12 06:13:16;;;;;;;2.95;2.42;;;;;;;34.52;56.16;100809.13;4969563;28;20237;-75
2022/06/12 06:15:43;;;;;;;2.67;1.95;;;;;;;34.61;55.87;100818.06;4968455;28;21388;-74
2022/06/12 06:18:09;;;;;;;3.17;2.72;;;;;;;34.40;55.79;100813.88;4964890;28;20198;-75
2022/06/12 06:20:37;;;;;;;2.80;2.60;;;;;;;34.38;56.35;100817.72;4967909;28;20189;-75
2022/06/12 06:23:03;;;;;;;2.97;2.58;;;;;;;34.30;56.32;100813.97;4969282;28;20192;-75
2022/06/12 06:25:29;;;;;;;2.47;2.22;;;;;;;34.58;56.26;100823.75;4969190;28;20189;-74
2022/06/12 06:27:55;;;;;;;3.95;2.72;;;;;;;34.76;56.30;100815.63;4981029;28;20915;-75
2022/06/12 06:30:22;;;;;;;3.42;2.88;;;;;;;34.77;56.01;100823.53;4970453;28;20190;-76
2022/06/12 06:32:48;;;;;;;2.70;2.50;;;;;;;34.87;55.97;100815.31;4971889;28;20316;-76
2022/06/12 06:35:14;;;;;;;2.88;2.67;;;;;;;34.68;56.28;100819.09;4971198;28;20185;-75
2022/06/12 06:37:40;;;;;;;3.78;3.05;;;;;;;34.08;56.48;100823.34;4968980;28;20558;-75
2022/06/12 06:40:08;;;;;;;2.83;2.63;;;;;;;33.94;57.19;100821.22;4977794;28;20263;-75
2022/06/12 06:42:35;;;;;;;2.90;2.70;;;;;;;34.03;57.31;100817.63;4971300;28;20201;-76
2022/06/12 06:47:44;;;;;;;3.22;2.92;;;;;;;34.18;56.50;100823.28;4976448;28;20196;-75
2022/06/12 06:50:12;;;;;;;3.10;2.80;;;;;;;33.88;57.24;100812.78;4978768;28;20572;-75
2022/06/12 06:52:38;;;;;;;3.70;2.92;;;;;;;33.88;57.38;100823.53;4978342;28;21919;-77
2022/06/12 06:55:04;;;;;;;4.25;3.28;;;;;;;33.69;57.37;100813.75;4977362;28;20193;-75
2022/06/12 06:57:29;;;;;;;2.90;2.70;;;;;;;33.95;57.57;100814.88;4977641;28;20210;-74
2022/06/12 06:59:55;;;;;;;3.92;3.08;;;;;;;34.06;57.15;100816.47;4991986;28;20752;-75
2022/06/12 07:02:20;;;;;;;3.35;2.97;;;;;;;34.02;57.55;100814.09;4976570;28;20225;-74
2022/06/12 07:04:46;;;;;;;3.45;3.15;;;;;;;34.23;57.51;100814.75;4976161;28;20193;-74
2022/06/12 07:07:11;;;;;;;8.57;3.95;;;;;;;33.79;57.96;100816.38;4975343;28;20679;-76
2022/06/12 07:09:42;;;;;;;4.03;3.20;;;;;;;34.02;57.77;100813.25;4977873;28;20186;-76
2022/06/12 07:12:08;;;;;;;3.58;3.28;;;;;;;34.22;57.77;100813.06;4976931;28;20221;-77
2022/06/12 07:14:34;;;;;;;3.40;3.08;;;;;;;34.28;57.58;100813.28;4975740;28;20366;-77
2022/06/12 07:17:00;;;;;;;4.65;3.30;;;;;;;34.29;57.63;100812.28;4995529;28;20196;-76
2022/06/12 07:19:26;;;;;;;3.28;2.97;;;;;;;34.30;57.46;100818.50;4976955;28;20189;-75
2022/06/12 07:21:52;;;;;;;3.42;3.13;;;;;;;34.26;57.51;100806.38;4979425;28;20200;-76
2022/06/12 07:24:17;;;;;;;3.53;2.95;;;;;;;34.05;57.31;100807.56;4978501;28;20188;-76
2022/06/12 07:26:45;;;;;;;4.13;3.25;;;;;;;33.62;57.71;100803.78;4981248;28;21091;-76
2022/06/12 07:29:12;;;;;;;4.05;3.08;;;;;;;33.58;58.27;100801.41;4976198;28;20197;-77
2022/06/12 07:31:38;;;;;;;3.03;2.83;;;;;;;33.63;58.32;100803.66;4979367;28;20594;-76
2022/06/12 07:34:04;;;;;;;3.60;2.92;;;;;;;33.50;57.93;100797.81;4976840;28;20194;-75
2022/06/12 07:36:30;;;;;;;3.95;2.60;;;;;;;33.35;58.27;100792.97;4974729;28;20601;-75
2022/06/12 07:38:56;;;;;;;3.75;3.33;;;;;;;33.00;58.60;100794.53;4968282;28;21039;-76
2022/06/12 07:41:22;;;;;;;4.63;3.40;;;;;;;32.68;59.03;100793.91;4972425;28;20213;-75
2022/06/12 07:43:48;;;;;;;3.45;3.15;;;;;;;32.19;60.51;100799.34;4975341;28;20197;-75
2022/06/12 07:46:16;;;;;;;3.67;3.38;;;;;;;32.45;60.40;100790.72;4979081;28;20288;-77
2022/06/12 07:48:42;;;;;;;4.20;3.47;;;;;;;32.43;60.22;100795.41;4986155;28;20189;-76
2022/06/12 07:51:11;;;;;;;3.75;3.10;;;;;;;32.55;60.10;100800.59;4971805;28;21294;-75
2022/06/12 07:53:37;;;;;;;6.03;3.92;;;;;;;32.46;60.54;100789.75;4974946;28;20319;-75
2022/06/12 07:56:04;;;;;;;3.22;2.90;;;;;;;32.44;60.46;100788.22;4977987;28;20196;-76
2022/06/12 07:58:30;;;;;;;3.58;3.22;;;;;;;32.32;60.92;100783.03;4972887;28;20213;-76
2022/06/12 08:00:59;;;;;;;3.78;3.47;;;;;;;32.32;60.84;100782.16;4977116;28;20690;-75
2022/06/12 08:03:26;;;;;;;4.07;3.77;;;;;;;32.27;60.81;100779.09;4983800;28;20181;-74
2022/06/12 08:05:51;;;;;;;4.80;3.70;;;;;;;32.11;61.35;100772.47;4998254;28;20185;-75
2022/06/12 08:08:20;;;;;;;5.13;3.80;;;;;;;31.97;61.85;100768.38;4985895;28;20660;-75
2022/06/12 08:10:46;;;;;;;5.23;4.13;;;;;;;31.80;61.93;100761.94;4988448;28;20267;-76
2022/06/12 08:13:11;;;;;;;5.00;4.50;;;;;;;31.61;62.29;100757.41;4987897;28;20680;-75
2022/06/12 08:15:40;;;;;;;5.60;5.00;;;;;;;31.38;62.45;100756.81;4989302;28;20178;-77
2022/06/12 08:18:06;;;;;;;5.80;5.20;;;;;;;31.22;62.81;100763.53;4985768;28;20208;-76
2022/06/12 08:20:35;;;;;;;6.00;5.40;;;;;;;31.01;62.75;100761.75;4982048;28;20182;-75
2022/06/12 08:23:03;;;;;;;7.80;4.83;;;;;;;30.84;62.33;100749.03;4983434;28;20174;-74
2022/06/12 08:25:31;;;;;;;6.13;4.27;;;;;;;30.55;63.17;100747.06;4987589;28;20632;-75
2022/06/12 08:27:56;;;;;;;5.27;4.80;;;;;;;30.48;63.43;100748.56;4985437;28;20185;-75
2022/06/12 08:30:22;;;;;;;4.67;4.33;;;;;;;30.33;62.98;100754.22;4983752;28;20562;-74
2022/06/12 08:32:51;;;;;;;4.47;4.07;;;;;;;30.09;64.01;100747.34;4983415;28;20720;-75
2022/06/12 08:35:31;;;;;;;4.83;4.43;;;;;;;29.95;63.94;100753.81;4978619;28;20185;-75
2022/06/12 08:37:56;;;;;;;4.97;4.47;;;;;;;29.56;64.64;100753.50;4986136;28;20216;-75
2022/06/12 08:41:07;;;;;;;5.07;4.57;;;;;;;29.47;65.36;100749.75;4979992;28;20220;-74
2022/06/12 08:43:40;;;;;;;4.77;4.27;;;;;;;29.38;65.57;100745.19;4985797;28;20177;-74
2022/06/12 08:46:22;;;;;;;4.67;3.80;;;;;;;29.27;65.13;100746.03;4985835;28;20192;-75
2022/06/12 08:48:55;;;;;;;3.73;3.53;;;;;;;29.01;65.22;100750.78;4984300;28;20189;-74
2022/06/12 08:51:51;;;;;;;3.33;3.07;;;;;;;28.76;65.68;100744.75;5001677;28;20205;-74
2022/06/12 08:54:23;;;;;;;3.47;3.17;;;;;;;28.48;65.51;100757.53;4959022;28;21024;-75
2022/06/12 08:56:58;;;;;;;4.40;3.13;;;;;;;28.31;64.95;100748.16;4982343;28;20562;-73
2022/06/12 08:59:34;;;;;;;4.97;3.17;;;;;;;27.97;66.03;100754.22;4981966;28;20195;-74
2022/06/12 09:02:05;;;;;;;3.57;3.27;;;;;;;27.91;66.75;100743.19;4983497;28;20619;-74
2022/06/12 09:04:31;;;;;;;3.40;3.10;;;;;;;27.95;66.70;100734.88;4981296;28;20168;-75
2022/06/12 09:07:08;;;;;;;4.17;3.17;;;;;;;27.92;66.11;100742.25;4981134;28;20186;-76
2022/06/12 09:10:06;;;;;;;3.40;3.10;;;;;;;27.98;66.46;100739.97;4984116;28;20288;-76
2022/06/12 09:12:53;;;;;;;3.17;2.83;;;;;;;28.05;67.29;100740.34;4972503;28;20769;-75
2022/06/12 09:15:43;;;;;;;3.23;3.03;;;;;;;28.07;67.46;100733.09;4998437;28;20189;-76
2022/06/12 09:18:40;;;;;;;3.20;2.90;;;;;;;28.16;67.75;100726.25;4984012;28;20177;-76
2022/06/12 09:21:10;;;;;;;3.73;2.83;;;;;;;28.08;67.30;100724.16;4964623;28;20287;-75
2022/06/12 09:23:55;;;;;;;3.80;2.70;;;;;;;28.16;66.83;100725.41;4980508;28;20720;-76
2022/06/12 09:26:41;;;;;;;4.13;2.90;;;;;;;28.14;66.70;100725.53;4978485;28;20542;-76
2022/06/12 09:29:21;;;;;;;3.53;2.90;;;;;;;28.03;67.06;100722.81;4981146;28;20952;-75
2022/06/12 09:31:55;;;;;;;2.47;2.27;;;;;;;28.06;67.09;100719.94;4998283;28;20764;-76
2022/06/12 09:34:30;;;;;;;2.90;2.70;;;;;;;28.17;67.84;100724.44;4982527;28;20567;-75
2022/06/12 09:38:18;;;;;;;2.73;2.53;;;;;;;28.23;67.73;100722.16;4983599;28;20209;-76
2022/06/12 09:40:07;;;;;;;3.33;2.70;;;;;;;28.36;67.76;100721.22;4981620;28;20263;-76
2022/06/12 09:42:56;;;;;;;2.70;2.50;;;;;;;28.50;67.57;100720.13;4983312;28;20221;-76
2022/06/12 09:46:00;;;;;;;3.37;2.90;;;;;;;28.41;66.98;100721.69;4984009;28;20242;-75
2022/06/12 09:48:37;;;;;;;3.40;2.83;;;;;;;28.38;67.30;100711.28;4977275;28;20192;-76
2022/06/12 09:51:10;;;;;;;3.87;2.60;;;;;;;28.35;66.74;100715.03;4984457;28;20209;-75
2022/06/12 09:53:35;;;;;;;4.20;3.67;;;;;;;28.26;66.80;100716.59;4980795;28;20226;-75
2022/06/12 09:56:07;;;;;;;3.57;3.27;;;;;;;28.26;67.11;100716.59;4983842;28;20216;-75
2022/06/12 09:58:40;;;;;;;3.10;2.70;;;;;;;28.24;67.18;100710.53;4984071;28;20185;-75
2022/06/12 10:01:19;;;;;;;3.40;3.10;;;;;;;28.31;67.23;100699.44;4985994;28;20216;-76
2022/06/12 10:03:54;;;;;;;2.67;2.47;;;;;;;28.42;67.63;100697.63;4984353;28;20204;-76
2022/06/12 10:06:36;;;;;;;3.03;2.73;;;;;;;28.54;67.58;100702.97;4997027;28;20189;-75
2022/06/12 10:09:11;;;;;;;3.27;2.80;;;;;;;28.68;67.29;100696.53;4979599;28;20193;-76
2022/06/12 10:11:45;;;;;;;2.63;2.43;;;;;;;28.77;66.98;100694.97;4981303;28;20219;-76
2022/06/12 10:14:16;;;;;;;2.60;2.40;;;;;;;28.86;66.89;100684.44;4991550;28;20219;-75
2022/06/12 10:17:22;;;;;;;2.90;2.60;;;;;;;28.94;66.67;100689.16;4984886;28;20267;-75
2022/06/12 10:20:11;;;;;;;2.47;2.23;;;;;;;28.97;65.80;100677.38;4975689;28;20201;-76
2022/06/12 10:22:43;;;;;;;5.03;2.80;;;;;;;29.01;65.16;100678.84;4981690;28;20213;-76
2022/06/12 10:25:18;;;;;;;3.23;2.77;;;;;;;28.92;65.54;100680.44;4984152;28;20197;-76
2022/06/12 10:27:47;;;;;;;3.13;2.83;;;;;;;28.83;65.47;100668.69;4987029;28;20192;-76
2022/06/12 10:30:40;;;;;;;3.90;3.03;;;;;;;28.79;65.31;100669.06;4980961;28;20670;-76
2022/06/12 10:33:23;;;;;;;3.93;2.70;;;;;;;28.77;64.76;100665.69;4980972;28;20648;-76
2022/06/12 10:36:01;;;;;;;4.10;2.90;;;;;;;28.73;64.77;100663.28;4985767;28;20692;-76
2022/06/12 10:38:32;;;;;;;3.10;2.80;;;;;;;28.74;64.90;100662.28;4979464;28;20268;-76
2022/06/12 10:41:07;;;;;;;5.30;4.90;;;;;;;28.77;64.74;100658.56;4977802;28;20209;-77
2022/06/12 10:43:39;;;;;;;11.13;10.13;;;;;;;28.81;65.18;100662.69;4975268;28;20185;-76
2022/06/12 10:46:15;;;;;;;13.87;12.70;;;;;;;29.00;66.39;100658.50;4982719;28;20614;-77
2022/06/12 10:48:42;;;;;;;3.73;3.00;;;;;;;29.12;64.71;100657.50;4983171;28;20208;-76
2022/06/12 10:51:30;;;;;;;4.53;2.70;;;;;;;28.99;63.62;100654.13;4999141;28;20219;-77
2022/06/12 10:54:02;;;;;;;2.67;2.10;;;;;;;28.94;64.12;100648.38;4972168;28;20236;-76
2022/06/12 10:56:42;;;;;;;2.80;2.50;;;;;;;29.03;64.34;100648.47;4981879;28;20188;-77
2022/06/12 10:59:33;;;;;;;2.60;2.40;;;;;;;29.12;65.01;100652.16;4982458;28;20194;-76
2022/06/12 11:02:28;;;;;;;2.90;2.10;;;;;;;29.16;64.69;100642.94;4995705;28;21066;-75
2022/06/12 11:05:05;;;;;;;1.80;1.70;;;;;;;29.28;64.80;100638.44;4976256;28;20236;-75
2022/06/12 11:07:55;;;;;;;2.60;2.20;;;;;;;29.29;63.87;100639.28;4996895;28;20215;-75
2022/06/12 11:10:43;;;;;;;2.50;1.90;;;;;;;29.29;63.58;100633.94;4983673;28;20217;-76
2022/06/12 11:13:20;;;;;;;3.63;2.30;;;;;;;29.32;64.07;100625.69;4985864;28;20303;-76
2022/06/12 11:16:04;;;;;;;2.50;2.10;;;;;;;29.45;64.33;100639.72;4998501;28;20212;-76
2022/06/12 11:18:30;;;;;;;1.80;1.57;;;;;;;29.52;63.83;100623.22;4983133;28;20267;-76
2022/06/12 11:21:10;;;;;;;2.07;1.90;;;;;;;29.62;63.86;100619.66;5000894;28;20716;-77
2022/06/12 11:23:57;;;;;;;2.23;1.83;;;;;;;29.77;64.30;100611.31;4989849;28;20267;-76
2022/06/12 11:26:51;;;;;;;2.93;2.10;;;;;;;29.89;63.80;100615.59;4983323;28;20273;-76
2022/06/12 11:29:54;;;;;;;2.43;2.00;;;;;;;29.90;61.60;100611.09;4987470;28;20196;-75
2022/06/12 11:32:38;;;;;;;3.50;1.93;;;;;;;29.95;62.07;100614.25;4983439;28;20660;-75
2022/06/12 11:35:23;;;;;;;2.77;1.70;;;;;;;29.76;60.75;100607.78;4986405;28;20268;-75
2022/06/12 11:37:54;;;;;;;2.07;1.87;;;;;;;29.53;60.57;100609.75;4981716;28;20197;-77
2022/06/12 11:40:38;;;;;;;1.80;1.60;;;;;;;29.52;60.39;100602.72;4987069;28;20193;-75
2022/06/12 11:43:50;;;;;;;1.80;1.67;;;;;;;29.87;61.21;100606.06;4987893;28;20196;-75
2022/06/12 11:46:43;;;;;;;1.93;1.73;;;;;;;30.45;60.88;100605.47;4946150;28;20214;-74
2022/06/12 11:49:15;;;;;;;1.80;1.70;;;;;;;30.86;60.00;100595.59;4984734;28;20239;-76
2022/06/12 11:52:21;;;;;;;2.57;1.60;;;;;;;31.21;60.16;100598.75;4987457;28;20263;-78
2022/06/12 11:55:09;;;;;;;1.80;1.60;;;;;;;31.67;59.68;100592.78;4962944;28;20213;-78
2022/06/12 11:57:53;;;;;;;1.70;1.60;;;;;;;32.07;58.66;100595.22;5000986;28;20819;-78
2022/06/12 12:00:31;;;;;;;1.90;1.60;;;;;;;32.21;57.52;100593.06;4983684;28;20672;-77
2022/06/12 12:03:34;;;;;;;1.70;1.60;;;;;;;31.99;57.70;100589.75;4984186;28;20188;-75